sensor_id;sensor_type;location;lat;lon;timestamp;P1;durP1;ratioP1;P2;durP2;ratioP2
23614;SDS011;11985;49.404;7.734;2023-06-14T00:03:53;7.65;;;4.25;;
23614;SDS011;11985;49.404;7.734;2023-06-14T00:08:55;6.45;;;4.13;;
23614;SDS011;11985;49.404;7.734;2023-06-14T00:13:58;9.75;;;4.60;;
23614;SDS011;11985;49.404;7.734;2023-06-14T00:19:00;6.85;;;4.07;;
23614;SDS011;11985;49.404;7.734;2023-06-14T00:24:03;6.05;;;4.03;;
23614;SDS011;11985;49.404;7.734;2023-06-14T00:29:07;7.63;;;4.57;;
23614;SDS011;11985;49.404;7.734;2023-06-14T00:34:08;9.95;;;4.28;;
23614;SDS011;11985;49.404;7.734;2023-06-14T00:39:10;5.32;;;4.20;;
23614;SDS011;11985;49.404;7.734;2023-06-14T00:44:13;10.80;;;5.40;;
23614;SDS011;11985;49.404;7.734;2023-06-14T00:49:18;11.23;;;4.25;;
23614;SDS011;11985;49.404;7.734;2023-06-14T00:54:21;7.32;;;5.03;;
23614;SDS011;11985;49.404;7.734;2023-06-14T00:59:24;10.65;;;4.40;;
23614;SDS011;11985;49.404;7.734;2023-06-14T01:04:26;8.95;;;3.95;;
23614;SDS011;11985;49.404;7.734;2023-06-14T01:09:29;7.53;;;4.30;;
23614;SDS011;11985;49.404;7.734;2023-06-14T01:14:36;9.07;;;4.45;;
23614;SDS011;11985;49.404;7.734;2023-06-14T01:19:39;9.33;;;4.50;;
23614;SDS011;11985;49.404;7.734;2023-06-14T01:24:44;8.70;;;4.38;;
23614;SDS011;11985;49.404;7.734;2023-06-14T01:29:46;11.65;;;4.63;;
23614;SDS011;11985;49.404;7.734;2023-06-14T01:34:47;7.35;;;4.40;;
23614;SDS011;11985;49.404;7.734;2023-06-14T01:39:50;9.15;;;5.00;;
23614;SDS011;11985;49.404;7.734;2023-06-14T01:44:52;8.38;;;5.10;;
23614;SDS011;11985;49.404;7.734;2023-06-14T01:49:56;5.95;;;4.43;;
23614;SDS011;11985;49.404;7.734;2023-06-14T01:54:59;6.47;;;4.45;;
23614;SDS011;11985;49.404;7.734;2023-06-14T02:00:03;10.73;;;5.13;;
23614;SDS011;11985;49.404;7.734;2023-06-14T02:05:06;7.97;;;4.78;;
23614;SDS011;11985;49.404;7.734;2023-06-14T02:10:09;7.45;;;4.30;;
23614;SDS011;11985;49.404;7.734;2023-06-14T02:15:10;10.65;;;4.80;;
23614;SDS011;11985;49.404;7.734;2023-06-14T02:20:16;9.18;;;4.53;;
23614;SDS011;11985;49.404;7.734;2023-06-14T02:25:19;6.68;;;4.38;;
23614;SDS011;11985;49.404;7.734;2023-06-14T02:30:21;10.15;;;4.68;;
23614;SDS011;11985;49.404;7.734;2023-06-14T02:35:23;5.72;;;4.28;;
23614;SDS011;11985;49.404;7.734;2023-06-14T02:40:27;12.60;;;5.15;;
23614;SDS011;11985;49.404;7.734;2023-06-14T02:45:29;13.73;;;5.40;;
23614;SDS011;11985;49.404;7.734;2023-06-14T02:50:31;8.77;;;4.40;;
23614;SDS011;11985;49.404;7.734;2023-06-14T02:55:33;10.68;;;5.30;;
23614;SDS011;11985;49.404;7.734;2023-06-14T03:00:39;8.40;;;4.90;;
23614;SDS011;11985;49.404;7.734;2023-06-14T03:05:43;8.77;;;4.97;;
23614;SDS011;11985;49.404;7.734;2023-06-14T03:15:50;8.50;;;4.90;;
23614;SDS011;11985;49.404;7.734;2023-06-14T03:20:51;7.65;;;4.45;;
23614;SDS011;11985;49.404;7.734;2023-06-14T03:25:55;7.22;;;5.30;;
23614;SDS011;11985;49.404;7.734;2023-06-14T03:30:57;8.57;;;5.20;;
23614;SDS011;11985;49.404;7.734;2023-06-14T03:35:58;8.30;;;5.47;;
23614;SDS011;11985;49.404;7.734;2023-06-14T03:41:01;8.80;;;4.63;;
23614;SDS011;11985;49.404;7.734;2023-06-14T03:46:03;8.18;;;5.07;;
23614;SDS011;11985;49.404;7.734;2023-06-14T03:51:04;13.00;;;5.68;;
23614;SDS011;11985;49.404;7.734;2023-06-14T03:56:07;7.75;;;5.03;;
23614;SDS011;11985;49.404;7.734;2023-06-14T04:01:09;10.57;;;5.45;;
23614;SDS011;11985;49.404;7.734;2023-06-14T04:06:12;6.00;;;4.60;;
23614;SDS011;11985;49.404;7.734;2023-06-14T04:11:20;9.15;;;5.22;;
23614;SDS011;11985;49.404;7.734;2023-06-14T04:16:22;13.15;;;5.53;;
23614;SDS011;11985;49.404;7.734;2023-06-14T04:21:23;19.55;;;6.97;;
23614;SDS011;11985;49.404;7.734;2023-06-14T04:26:27;9.13;;;5.00;;
23614;SDS011;11985;49.404;7.734;2023-06-14T04:31:29;11.63;;;5.68;;
23614;SDS011;11985;49.404;7.734;2023-06-14T04:36:33;10.60;;;5.00;;
23614;SDS011;11985;49.404;7.734;2023-06-14T04:41:38;29.10;;;6.75;;
23614;SDS011;11985;49.404;7.734;2023-06-14T04:46:39;21.85;;;5.28;;
23614;SDS011;11985;49.404;7.734;2023-06-14T04:51:45;15.48;;;5.00;;
23614;SDS011;11985;49.404;7.734;2023-06-14T04:56:52;12.82;;;5.25;;
23614;SDS011;11985;49.404;7.734;2023-06-14T05:01:55;15.93;;;5.10;;
23614;SDS011;11985;49.404;7.734;2023-06-14T05:06:57;6.43;;;4.53;;
23614;SDS011;11985;49.404;7.734;2023-06-14T05:11:59;10.00;;;4.53;;
23614;SDS011;11985;49.404;7.734;2023-06-14T05:17:01;7.65;;;4.55;;
23614;SDS011;11985;49.404;7.734;2023-06-14T05:22:03;7.40;;;4.75;;
23614;SDS011;11985;49.404;7.734;2023-06-14T05:27:06;8.00;;;4.53;;
23614;SDS011;11985;49.404;7.734;2023-06-14T05:32:08;14.35;;;4.20;;
23614;SDS011;11985;49.404;7.734;2023-06-14T05:37:10;7.40;;;4.30;;
23614;SDS011;11985;49.404;7.734;2023-06-14T05:42:14;6.50;;;3.85;;
23614;SDS011;11985;49.404;7.734;2023-06-14T05:47:16;7.28;;;4.28;;
23614;SDS011;11985;49.404;7.734;2023-06-14T05:52:17;5.65;;;4.07;;
23614;SDS011;11985;49.404;7.734;2023-06-14T05:57:20;7.88;;;4.20;;
23614;SDS011;11985;49.404;7.734;2023-06-14T06:02:22;6.68;;;4.03;;
23614;SDS011;11985;49.404;7.734;2023-06-14T06:07:24;8.30;;;4.43;;
23614;SDS011;11985;49.404;7.734;2023-06-14T06:12:26;7.55;;;4.20;;
23614;SDS011;11985;49.404;7.734;2023-06-14T06:17:28;8.20;;;4.57;;
23614;SDS011;11985;49.404;7.734;2023-06-14T06:22:29;14.07;;;3.95;;
23614;SDS011;11985;49.404;7.734;2023-06-14T06:27:33;9.95;;;4.15;;
23614;SDS011;11985;49.404;7.734;2023-06-14T06:32:36;12.77;;;4.53;;
23614;SDS011;11985;49.404;7.734;2023-06-14T06:37:37;8.90;;;3.90;;
23614;SDS011;11985;49.404;7.734;2023-06-14T06:42:40;5.43;;;3.70;;
23614;SDS011;11985;49.404;7.734;2023-06-14T06:47:42;11.98;;;4.40;;
23614;SDS011;11985;49.404;7.734;2023-06-14T06:52:43;5.07;;;4.10;;
23614;SDS011;11985;49.404;7.734;2023-06-14T06:57:47;5.50;;;3.40;;
23614;SDS011;11985;49.404;7.734;2023-06-14T07:02:49;5.27;;;4.07;;
23614;SDS011;11985;49.404;7.734;2023-06-14T07:07:52;5.75;;;4.43;;
23614;SDS011;11985;49.404;7.734;2023-06-14T07:12:55;6.20;;;3.90;;
23614;SDS011;11985;49.404;7.734;2023-06-14T07:17:56;6.43;;;4.05;;
23614;SDS011;11985;49.404;7.734;2023-06-14T07:22:59;6.15;;;4.00;;
23614;SDS011;11985;49.404;7.734;2023-06-14T07:28:02;8.90;;;4.47;;
23614;SDS011;11985;49.404;7.734;2023-06-14T07:33:04;7.97;;;4.30;;
23614;SDS011;11985;49.404;7.734;2023-06-14T07:38:06;8.50;;;4.13;;
23614;SDS011;11985;49.404;7.734;2023-06-14T07:43:08;12.02;;;3.67;;
23614;SDS011;11985;49.404;7.734;2023-06-14T07:48:10;11.13;;;4.38;;
23614;SDS011;11985;49.404;7.734;2023-06-14T07:53:12;7.25;;;3.53;;
23614;SDS011;11985;49.404;7.734;2023-06-14T07:58:15;8.48;;;4.18;;
23614;SDS011;11985;49.404;7.734;2023-06-14T08:03:16;9.20;;;4.15;;
23614;SDS011;11985;49.404;7.734;2023-06-14T08:08:18;8.30;;;4.03;;
23614;SDS011;11985;49.404;7.734;2023-06-14T08:13:21;9.05;;;3.85;;
23614;SDS011;11985;49.404;7.734;2023-06-14T08:18:22;6.38;;;4.22;;
23614;SDS011;11985;49.404;7.734;2023-06-14T08:23:24;9.02;;;3.90;;
23614;SDS011;11985;49.404;7.734;2023-06-14T08:28:27;6.57;;;3.80;;
23614;SDS011;11985;49.404;7.734;2023-06-14T08:33:28;7.90;;;3.90;;
23614;SDS011;11985;49.404;7.734;2023-06-14T08:38:33;9.02;;;3.60;;
23614;SDS011;11985;49.404;7.734;2023-06-14T08:43:36;9.52;;;3.67;;
23614;SDS011;11985;49.404;7.734;2023-06-14T08:48:37;5.03;;;3.42;;
23614;SDS011;11985;49.404;7.734;2023-06-14T08:53:40;8.20;;;3.42;;
23614;SDS011;11985;49.404;7.734;2023-06-14T08:58:44;12.68;;;3.53;;
23614;SDS011;11985;49.404;7.734;2023-06-14T09:03:48;4.90;;;3.47;;
23614;SDS011;11985;49.404;7.734;2023-06-14T09:08:50;8.23;;;3.47;;
23614;SDS011;11985;49.404;7.734;2023-06-14T09:13:53;8.73;;;2.97;;
23614;SDS011;11985;49.404;7.734;2023-06-14T09:18:55;7.60;;;3.28;;
23614;SDS011;11985;49.404;7.734;2023-06-14T09:23:56;5.10;;;3.33;;
23614;SDS011;11985;49.404;7.734;2023-06-14T09:28:59;18.10;;;3.03;;
23614;SDS011;11985;49.404;7.734;2023-06-14T09:34:01;7.68;;;3.38;;
23614;SDS011;11985;49.404;7.734;2023-06-14T09:39:03;5.47;;;3.22;;
23614;SDS011;11985;49.404;7.734;2023-06-14T09:44:08;6.80;;;3.00;;
23614;SDS011;11985;49.404;7.734;2023-06-14T09:49:10;11.15;;;3.20;;
23614;SDS011;11985;49.404;7.734;2023-06-14T09:54:13;4.65;;;2.80;;
23614;SDS011;11985;49.404;7.734;2023-06-14T09:59:19;8.02;;;3.05;;
23614;SDS011;11985;49.404;7.734;2023-06-14T10:04:27;9.80;;;2.80;;
23614;SDS011;11985;49.404;7.734;2023-06-14T10:09:30;4.90;;;2.83;;
23614;SDS011;11985;49.404;7.734;2023-06-14T10:14:36;4.65;;;2.70;;
23614;SDS011;11985;49.404;7.734;2023-06-14T10:19:40;4.33;;;2.50;;
23614;SDS011;11985;49.404;7.734;2023-06-14T10:24:48;4.05;;;2.42;;
23614;SDS011;11985;49.404;7.734;2023-06-14T10:30:05;8.82;;;2.35;;
23614;SDS011;11985;49.404;7.734;2023-06-14T10:35:11;4.78;;;2.35;;
23614;SDS011;11985;49.404;7.734;2023-06-14T10:40:29;3.60;;;2.75;;
23614;SDS011;11985;49.404;7.734;2023-06-14T10:45:33;3.90;;;2.42;;
23614;SDS011;11985;49.404;7.734;2023-06-14T10:50:34;2.80;;;2.25;;
23614;SDS011;11985;49.404;7.734;2023-06-14T10:55:36;5.25;;;2.42;;
23614;SDS011;11985;49.404;7.734;2023-06-14T11:00:39;6.80;;;2.38;;
23614;SDS011;11985;49.404;7.734;2023-06-14T11:05:50;3.35;;;2.30;;
23614;SDS011;11985;49.404;7.734;2023-06-14T11:10:53;4.45;;;2.30;;
23614;SDS011;11985;49.404;7.734;2023-06-14T11:16:01;5.55;;;2.10;;
23614;SDS011;11985;49.404;7.734;2023-06-14T11:21:02;5.22;;;2.60;;
23614;SDS011;11985;49.404;7.734;2023-06-14T11:26:04;8.10;;;2.20;;
23614;SDS011;11985;49.404;7.734;2023-06-14T11:31:07;4.05;;;2.42;;
23614;SDS011;11985;49.404;7.734;2023-06-14T11:36:09;4.28;;;2.25;;
23614;SDS011;11985;49.404;7.734;2023-06-14T11:41:10;2.60;;;2.30;;
23614;SDS011;11985;49.404;7.734;2023-06-14T11:46:14;4.55;;;2.40;;
23614;SDS011;11985;49.404;7.734;2023-06-14T11:51:16;5.35;;;2.20;;
23614;SDS011;11985;49.404;7.734;2023-06-14T11:56:20;7.90;;;2.35;;
23614;SDS011;11985;49.404;7.734;2023-06-14T12:01:23;2.53;;;2.10;;
23614;SDS011;11985;49.404;7.734;2023-06-14T12:06:26;2.50;;;2.20;;
23614;SDS011;11985;49.404;7.734;2023-06-14T12:11:32;5.80;;;2.05;;
23614;SDS011;11985;49.404;7.734;2023-06-14T12:16:37;2.63;;;2.00;;
23614;SDS011;11985;49.404;7.734;2023-06-14T12:21:41;5.72;;;2.58;;
23614;SDS011;11985;49.404;7.734;2023-06-14T12:26:44;3.25;;;2.10;;
23614;SDS011;11985;49.404;7.734;2023-06-14T12:31:48;4.00;;;2.42;;
23614;SDS011;11985;49.404;7.734;2023-06-14T12:36:49;3.28;;;2.10;;
23614;SDS011;11985;49.404;7.734;2023-06-14T12:41:51;8.77;;;2.50;;
23614;SDS011;11985;49.404;7.734;2023-06-14T12:46:54;2.83;;;1.83;;
23614;SDS011;11985;49.404;7.734;2023-06-14T12:51:56;5.43;;;2.13;;
23614;SDS011;11985;49.404;7.734;2023-06-14T12:56:57;3.08;;;2.10;;
23614;SDS011;11985;49.404;7.734;2023-06-14T13:02:01;2.28;;;1.70;;
23614;SDS011;11985;49.404;7.734;2023-06-14T13:07:12;5.85;;;2.00;;
23614;SDS011;11985;49.404;7.734;2023-06-14T13:12:15;2.35;;;2.08;;
23614;SDS011;11985;49.404;7.734;2023-06-14T13:17:18;3.20;;;1.60;;
23614;SDS011;11985;49.404;7.734;2023-06-14T13:22:19;2.70;;;1.70;;
23614;SDS011;11985;49.404;7.734;2023-06-14T13:27:21;1.83;;;1.60;;
23614;SDS011;11985;49.404;7.734;2023-06-14T13:32:25;4.03;;;1.73;;
23614;SDS011;11985;49.404;7.734;2023-06-14T13:37:27;5.07;;;1.73;;
23614;SDS011;11985;49.404;7.734;2023-06-14T13:42:29;4.32;;;1.80;;
23614;SDS011;11985;49.404;7.734;2023-06-14T13:47:33;3.35;;;1.80;;
23614;SDS011;11985;49.404;7.734;2023-06-14T13:52:35;11.25;;;1.52;;
23614;SDS011;11985;49.404;7.734;2023-06-14T13:57:37;4.05;;;1.80;;
23614;SDS011;11985;49.404;7.734;2023-06-14T14:02:40;2.20;;;1.67;;
23614;SDS011;11985;49.404;7.734;2023-06-14T14:07:42;1.53;;;1.30;;
23614;SDS011;11985;49.404;7.734;2023-06-14T14:12:44;4.05;;;1.60;;
23614;SDS011;11985;49.404;7.734;2023-06-14T14:17:47;6.03;;;2.00;;
23614;SDS011;11985;49.404;7.734;2023-06-14T14:22:50;2.70;;;1.70;;
23614;SDS011;11985;49.404;7.734;2023-06-14T14:27:51;2.25;;;1.60;;
23614;SDS011;11985;49.404;7.734;2023-06-14T14:32:54;2.20;;;1.65;;
23614;SDS011;11985;49.404;7.734;2023-06-14T14:37:56;3.30;;;1.80;;
23614;SDS011;11985;49.404;7.734;2023-06-14T14:42:57;4.75;;;1.75;;
23614;SDS011;11985;49.404;7.734;2023-06-14T14:48:00;6.47;;;1.65;;
23614;SDS011;11985;49.404;7.734;2023-06-14T14:53:03;6.03;;;1.98;;
23614;SDS011;11985;49.404;7.734;2023-06-14T14:58:04;2.28;;;1.75;;
23614;SDS011;11985;49.404;7.734;2023-06-14T15:03:08;3.25;;;1.80;;
23614;SDS011;11985;49.404;7.734;2023-06-14T15:08:10;4.40;;;1.88;;
23614;SDS011;11985;49.404;7.734;2023-06-14T15:13:11;4.35;;;1.70;;
23614;SDS011;11985;49.404;7.734;2023-06-14T15:18:14;4.15;;;1.80;;
23614;SDS011;11985;49.404;7.734;2023-06-14T15:23:17;6.30;;;2.20;;
23614;SDS011;11985;49.404;7.734;2023-06-14T15:28:19;2.78;;;1.80;;
23614;SDS011;11985;49.404;7.734;2023-06-14T15:33:23;5.30;;;1.70;;
23614;SDS011;11985;49.404;7.734;2023-06-14T15:38:25;5.07;;;2.22;;
23614;SDS011;11985;49.404;7.734;2023-06-14T15:43:27;2.38;;;2.00;;
23614;SDS011;11985;49.404;7.734;2023-06-14T15:48:30;5.78;;;2.00;;
23614;SDS011;11985;49.404;7.734;2023-06-14T15:53:31;5.68;;;2.15;;
23614;SDS011;11985;49.404;7.734;2023-06-14T15:58:34;2.97;;;1.92;;
23614;SDS011;11985;49.404;7.734;2023-06-14T16:03:37;6.13;;;2.08;;
23614;SDS011;11985;49.404;7.734;2023-06-14T16:08:39;3.92;;;2.05;;
23614;SDS011;11985;49.404;7.734;2023-06-14T16:13:41;5.43;;;1.88;;
23614;SDS011;11985;49.404;7.734;2023-06-14T16:18:44;4.82;;;2.03;;
23614;SDS011;11985;49.404;7.734;2023-06-14T16:23:46;3.45;;;2.33;;
23614;SDS011;11985;49.404;7.734;2023-06-14T16:28:47;3.55;;;1.98;;
23614;SDS011;11985;49.404;7.734;2023-06-14T16:33:50;3.50;;;1.98;;
23614;SDS011;11985;49.404;7.734;2023-06-14T16:38:54;2.65;;;2.25;;
23614;SDS011;11985;49.404;7.734;2023-06-14T16:43:57;4.45;;;2.30;;
23614;SDS011;11985;49.404;7.734;2023-06-14T16:49:00;5.30;;;2.30;;
23614;SDS011;11985;49.404;7.734;2023-06-14T16:54:02;5.07;;;2.20;;
23614;SDS011;11985;49.404;7.734;2023-06-14T16:59:04;3.70;;;2.50;;
23614;SDS011;11985;49.404;7.734;2023-06-14T17:04:07;4.93;;;2.60;;
23614;SDS011;11985;49.404;7.734;2023-06-14T17:09:08;2.80;;;2.55;;
23614;SDS011;11985;49.404;7.734;2023-06-14T17:14:10;7.75;;;2.45;;
23614;SDS011;11985;49.404;7.734;2023-06-14T17:19:14;4.65;;;2.95;;
23614;SDS011;11985;49.404;7.734;2023-06-14T17:24:15;5.80;;;2.33;;
23614;SDS011;11985;49.404;7.734;2023-06-14T17:29:17;6.47;;;2.30;;
23614;SDS011;11985;49.404;7.734;2023-06-14T17:34:20;5.47;;;2.63;;
23614;SDS011;11985;49.404;7.734;2023-06-14T17:39:21;5.05;;;2.55;;
23614;SDS011;11985;49.404;7.734;2023-06-14T17:44:23;5.25;;;2.63;;
23614;SDS011;11985;49.404;7.734;2023-06-14T17:49:26;6.47;;;3.25;;
23614;SDS011;11985;49.404;7.734;2023-06-14T17:54:27;3.45;;;2.45;;
23614;SDS011;11985;49.404;7.734;2023-06-14T17:59:29;3.40;;;2.70;;
23614;SDS011;11985;49.404;7.734;2023-06-14T18:04:32;8.07;;;3.38;;
23614;SDS011;11985;49.404;7.734;2023-06-14T18:09:34;3.70;;;2.35;;
23614;SDS011;11985;49.404;7.734;2023-06-14T18:14:35;6.00;;;2.88;;
23614;SDS011;11985;49.404;7.734;2023-06-14T18:19:38;9.77;;;2.65;;
23614;SDS011;11985;49.404;7.734;2023-06-14T18:24:42;6.55;;;2.95;;
23614;SDS011;11985;49.404;7.734;2023-06-14T18:29:43;3.78;;;2.47;;
23614;SDS011;11985;49.404;7.734;2023-06-14T18:34:47;3.88;;;2.60;;
23614;SDS011;11985;49.404;7.734;2023-06-14T18:39:49;8.18;;;2.30;;
23614;SDS011;11985;49.404;7.734;2023-06-14T18:44:50;5.38;;;2.60;;
23614;SDS011;11985;49.404;7.734;2023-06-14T18:49:53;7.65;;;2.50;;
23614;SDS011;11985;49.404;7.734;2023-06-14T18:54:55;3.22;;;1.90;;
23614;SDS011;11985;49.404;7.734;2023-06-14T18:59:56;3.78;;;2.33;;
23614;SDS011;11985;49.404;7.734;2023-06-14T19:04:59;3.25;;;2.30;;
23614;SDS011;11985;49.404;7.734;2023-06-14T19:10:05;7.82;;;2.35;;
23614;SDS011;11985;49.404;7.734;2023-06-14T19:15:07;4.32;;;2.05;;
23614;SDS011;11985;49.404;7.734;2023-06-14T19:20:11;10.15;;;2.40;;
23614;SDS011;11985;49.404;7.734;2023-06-14T19:25:13;3.33;;;2.10;;
23614;SDS011;11985;49.404;7.734;2023-06-14T19:30:15;4.75;;;2.88;;
23614;SDS011;11985;49.404;7.734;2023-06-14T19:35:18;2.97;;;2.35;;
23614;SDS011;11985;49.404;7.734;2023-06-14T19:40:21;5.03;;;2.42;;
23614;SDS011;11985;49.404;7.734;2023-06-14T19:45:23;4.70;;;2.38;;
23614;SDS011;11985;49.404;7.734;2023-06-14T19:50:26;3.88;;;2.33;;
23614;SDS011;11985;49.404;7.734;2023-06-14T19:55:27;7.93;;;3.05;;
23614;SDS011;11985;49.404;7.734;2023-06-14T20:00:29;5.65;;;2.30;;
23614;SDS011;11985;49.404;7.734;2023-06-14T20:05:34;6.28;;;2.53;;
23614;SDS011;11985;49.404;7.734;2023-06-14T20:10:35;3.95;;;2.58;;
23614;SDS011;11985;49.404;7.734;2023-06-14T20:15:37;10.05;;;2.60;;
23614;SDS011;11985;49.404;7.734;2023-06-14T20:20:40;4.80;;;2.55;;
23614;SDS011;11985;49.404;7.734;2023-06-14T20:30:45;4.57;;;2.47;;
23614;SDS011;11985;49.404;7.734;2023-06-14T20:35:48;4.03;;;2.40;;
23614;SDS011;11985;49.404;7.734;2023-06-14T20:40:49;4.15;;;2.38;;
23614;SDS011;11985;49.404;7.734;2023-06-14T20:45:52;3.83;;;2.38;;
23614;SDS011;11985;49.404;7.734;2023-06-14T20:50:56;5.40;;;2.58;;
23614;SDS011;11985;49.404;7.734;2023-06-14T20:55:58;4.00;;;2.60;;
23614;SDS011;11985;49.404;7.734;2023-06-14T21:01:00;5.60;;;2.47;;
23614;SDS011;11985;49.404;7.734;2023-06-14T21:06:04;10.48;;;3.10;;
23614;SDS011;11985;49.404;7.734;2023-06-14T21:11:06;3.17;;;2.50;;
23614;SDS011;11985;49.404;7.734;2023-06-14T21:16:08;8.65;;;2.47;;
23614;SDS011;11985;49.404;7.734;2023-06-14T21:21:10;3.80;;;2.45;;
23614;SDS011;11985;49.404;7.734;2023-06-14T21:26:12;5.85;;;2.50;;
23614;SDS011;11985;49.404;7.734;2023-06-14T21:31:17;4.35;;;2.67;;
23614;SDS011;11985;49.404;7.734;2023-06-14T21:36:20;3.72;;;2.78;;
23614;SDS011;11985;49.404;7.734;2023-06-14T21:41:22;7.60;;;3.15;;
23614;SDS011;11985;49.404;7.734;2023-06-14T21:46:23;8.25;;;2.75;;
23614;SDS011;11985;49.404;7.734;2023-06-14T21:51:26;5.63;;;2.40;;
23614;SDS011;11985;49.404;7.734;2023-06-14T21:56:28;6.00;;;2.72;;
23614;SDS011;11985;49.404;7.734;2023-06-14T22:01:30;3.92;;;2.85;;
23614;SDS011;11985;49.404;7.734;2023-06-14T22:06:33;5.88;;;2.45;;
23614;SDS011;11985;49.404;7.734;2023-06-14T22:11:35;2.95;;;2.58;;
23614;SDS011;11985;49.404;7.734;2023-06-14T22:16:36;4.25;;;3.22;;
23614;SDS011;11985;49.404;7.734;2023-06-14T22:21:40;3.70;;;2.75;;
23614;SDS011;11985;49.404;7.734;2023-06-14T22:26:49;3.63;;;2.70;;
23614;SDS011;11985;49.404;7.734;2023-06-14T22:37:54;11.07;;;2.92;;
23614;SDS011;11985;49.404;7.734;2023-06-14T22:42:56;7.18;;;3.20;;
23614;SDS011;11985;49.404;7.734;2023-06-14T22:47:57;3.28;;;2.63;;
23614;SDS011;11985;49.404;7.734;2023-06-14T22:53:00;7.22;;;2.80;;
23614;SDS011;11985;49.404;7.734;2023-06-14T22:58:02;4.07;;;2.78;;
23614;SDS011;11985;49.404;7.734;2023-06-14T23:03:04;3.85;;;2.67;;
23614;SDS011;11985;49.404;7.734;2023-06-14T23:08:07;5.18;;;2.63;;
23614;SDS011;11985;49.404;7.734;2023-06-14T23:13:09;7.45;;;2.88;;
23614;SDS011;11985;49.404;7.734;2023-06-14T23:18:11;7.43;;;2.90;;
23614;SDS011;11985;49.404;7.734;2023-06-14T23:23:14;5.70;;;2.90;;
23614;SDS011;11985;49.404;7.734;2023-06-14T23:28:16;3.50;;;2.42;;
23614;SDS011;11985;49.404;7.734;2023-06-14T23:33:17;5.13;;;3.20;;
23614;SDS011;11985;49.404;7.734;2023-06-14T23:38:20;7.18;;;3.00;;
23614;SDS011;11985;49.404;7.734;2023-06-14T23:43:22;3.35;;;2.72;;
23614;SDS011;11985;49.404;7.734;2023-06-14T23:48:24;4.47;;;2.65;;
23614;SDS011;11985;49.404;7.734;2023-06-14T23:53:27;3.78;;;2.45;;
23614;SDS011;11985;49.404;7.734;2023-06-14T23:58:32;6.18;;;2.90;;
